Ana Sayfa
METAR-TAF:

METAR-TAF

Havaalanları :

Bağdat, Irak

Bağdat Uluslararası Havaalanı

Enlem: 33-15-45N, Boylam: 44-14-04E, yükseklik: 35 m

Güncel hava durumu gözlemi

Rapor saat 03:00 UTC de 31 dakika önce yapıldı.
Rüzgar güneydoğudan 14 kt
Sıcaklık 13°C
Nem 77%
Basınç 1011 hPa
Görüş mesafesi 10 km veya daha fazla
3300 ft yükseklikte parçalı bulutlu

METAR: ORBI 260300Z 14014KT 9999 SCT033 13/09 Q1011

Saat: 06:31 (03:31 UTC)

Tahmin

Rapor saat 23:00 UTC de 4 saat ve 31 dakika önce yapıldı.
Ayın 26'si saat 00 UTC'den ayın 26'si saat 24 UTC'ye kadar geçerli Tahmin
Rüzgar doğu/güneydoğudan 14 kt
Görüş mesafesi: 7000 m
3000 ft yükseklikte parçalı çok bulutlu
Dönüşüyor
ayın 26'si saat 08 UTC'den ayın 26'si saat 10 UTC'ye kadar
Rüzgar değişken yönden 3 kt
Geçici
ayın 26'si saat 09 UTC'den ayın 26'si saat 24 UTC'ye kadar
hafif yağmur

TAF: ORBI 252300Z 2600/2624 12014KT 7000 BKN030 BECMG 2608/2610 VRB03KT TEMPO 2609/2624 -RA

4.000'den fazla havaalanı için hava durumu gözlemleri ve tahminleri (METAR ve TAF raporları).

Kullanılabilir istasyonlar harita üzerinde sarı ve kırmızı noktalarla gösterilir.

İstasyonun adını görmek için fareyi noktanın üzerinde gezdirin.

Sonrasında hava gözlem ve tahminlerini görmek için tıklayın.

Haritayı değiştirmek için: yaklaştırmak için siyah artı işaretli yeşil düğmeye ve uzaklaştırmak için de eksi işaretli düğmeye hızla tıklayın; bitişik haritalar için yeşil okları kullanın.


METAR-TAF: